Time;durP1;ratioP1;P1;durP2;ratioP2;P2;SDS_P1;SDS_P2;PMS_P1;PMS_P2;Temp;Humidity;BMP_temperature;BMP_pressure;BME280_temperature;BME280_humidity;BME280_pressure;Samples;Min_cycle;Max_cycle;Signal;HPM_P1;HPM_P2
2023/08/23 00:04:55;;;;;;;;;;;;;;;22.38;100.00;98038.50;18234221;32;20055;-50
2023/08/23 00:14:57;;;;;;;3.72;2.47;;;;;;;22.24;100.00;98039.59;18233787;32;20038;-53
2023/08/23 00:25:00;;;;;;;3.22;2.50;;;;;;;22.14;100.00;98037.25;18231568;32;20088;-53
2023/08/23 00:35:03;;;;;;;5.15;2.95;;;;;;;22.04;100.00;98041.22;18232023;32;20066;-49
2023/08/23 00:45:07;;;;;;;5.90;2.53;;;;;;;21.93;100.00;98029.81;18231977;32;20058;-52
2023/08/23 00:55:09;;;;;;;5.12;2.60;;;;;;;21.80;100.00;98025.38;18231724;32;20397;-52
2023/08/23 01:05:12;;;;;;;3.87;2.58;;;;;;;21.65;100.00;98035.03;18231271;32;20051;-51
2023/08/23 01:15:17;;;;;;;4.12;3.03;;;;;;;21.54;100.00;98022.81;18229769;32;20065;-50
2023/08/23 01:25:20;;;;;;;6.05;2.85;;;;;;;21.46;100.00;98024.44;18229186;32;20073;-50
2023/08/23 01:35:28;;;;;;;;;;;;;;;21.37;100.00;98035.50;18230102;32;20077;-53
2023/08/23 01:45:31;;;;;;;6.57;2.65;;;;;;;21.31;100.00;98048.66;18238774;32;20261;-52
2023/08/23 01:55:33;;;;;;;5.80;2.90;;;;;;;21.21;100.00;98035.28;18226352;32;20430;-53
2023/08/23 02:05:36;;;;;;;3.53;2.72;;;;;;;21.10;100.00;98036.78;18237962;32;20046;-53
2023/08/23 02:15:38;;;;;;;4.77;2.30;;;;;;;20.99;100.00;98034.41;18238864;32;20073;-53
2023/08/23 02:25:41;;;;;;;5.37;2.70;;;;;;;20.88;100.00;98035.09;18238436;32;20117;-52
2023/08/23 02:35:44;;;;;;;5.70;2.62;;;;;;;20.82;100.00;98029.00;18237493;32;20074;-51
2023/08/23 02:45:46;;;;;;;3.60;2.87;;;;;;;20.73;100.00;98040.00;18237579;32;20050;-52
2023/08/23 02:55:49;;;;;;;5.07;2.57;;;;;;;20.65;100.00;98030.62;18235838;32;20062;-51
2023/08/23 03:05:56;;;;;;;3.40;2.40;;;;;;;20.59;100.00;98037.41;18235714;32;20069;-50
2023/08/23 03:16:00;;;;;;;3.40;2.47;;;;;;;20.52;100.00;98036.31;18236302;32;20081;-52
2023/08/23 03:26:02;;;;;;;4.95;2.65;;;;;;;20.45;100.00;98014.84;18234813;32;20059;-51
2023/08/23 03:36:06;;;;;;;6.20;3.00;;;;;;;20.36;100.00;98023.09;18234181;32;20370;-53
2023/08/23 03:46:08;;;;;;;;;;;;;;;20.29;100.00;98031.03;18235114;32;20046;-51
2023/08/23 03:56:11;;;;;;;6.87;2.83;;;;;;;20.17;100.00;98026.19;18234734;32;19961;-50
2023/08/23 04:06:14;;;;;;;3.75;2.50;;;;;;;20.07;100.00;98035.56;18232469;32;20066;-49
2023/08/23 04:16:17;;;;;;;2.50;2.28;;;;;;;20.01;100.00;98027.81;18232606;32;20093;-53
2023/08/23 04:26:20;;;;;;;3.60;2.30;;;;;;;19.95;100.00;98019.75;18232790;32;20084;-54
2023/08/23 04:36:23;;;;;;;3.60;2.78;;;;;;;19.85;100.00;98022.81;18219093;32;20147;-53
2023/08/23 04:46:26;;;;;;;4.70;2.45;;;;;;;19.75;100.00;98023.12;18232060;32;20118;-53
2023/08/23 04:56:29;;;;;;;4.82;2.80;;;;;;;19.69;100.00;98018.91;18217766;32;20110;-50
2023/08/23 05:06:32;;;;;;;6.32;2.92;;;;;;;19.63;100.00;98032.75;18231044;32;20074;-50
2023/08/23 05:16:37;;;;;;;3.58;2.62;;;;;;;19.64;100.00;98033.59;18235263;32;20070;-50
2023/08/23 05:26:41;;;;;;;;;;;;;;;19.69;100.00;98027.13;18241147;32;20055;-49
2023/08/23 05:36:44;;;;;;;4.25;2.70;;;;;;;19.75;100.00;98034.87;18241186;32;20002;-49
2023/08/23 05:46:48;;;;;;;6.00;2.87;;;;;;;19.90;100.00;98052.84;18240024;32;20513;-50
2023/08/23 05:56:53;;;;;;;4.57;3.00;;;;;;;20.09;100.00;98059.94;18240268;32;20126;-53
2023/08/23 06:06:58;;;;;;;4.43;2.90;;;;;;;20.26;100.00;98065.41;18239275;32;20108;-53
2023/08/23 06:17:01;;;;;;;2.90;2.53;;;;;;;20.51;100.00;98065.72;18239047;32;20095;-50
2023/08/23 06:27:04;;;;;;;4.72;3.40;;;;;;;20.80;100.00;98069.72;18236304;32;20362;-50
2023/08/23 06:37:11;;;;;;;3.83;3.15;;;;;;;21.05;100.00;98072.69;18237213;32;20046;-53
2023/08/23 06:47:14;;;;;;;5.18;2.85;;;;;;;21.37;100.00;98067.72;18237366;32;20050;-53
2023/08/23 06:57:17;;;;;;;6.07;2.92;;;;;;;21.69;100.00;98060.75;18237272;32;20340;-53
2023/08/23 07:07:20;;;;;;;;;;;;;;;21.97;100.00;98052.78;18236626;32;20062;-51
2023/08/23 08:44:24;;;;;;;4.10;3.70;;;;;;;22.26;100.00;98066.81;18237027;32;19962;-52
2023/08/23 08:54:34;;;;;;;7.35;4.22;;;;;;;22.26;100.00;98066.81;18231534;32;20062;-54
2023/08/23 09:04:39;;;;;;;6.82;4.05;;;;;;;25.50;100.00;98106.25;18231561;32;20117;-54
2023/08/23 09:14:49;;;;;;;7.35;4.72;;;;;;;25.81;100.00;98091.56;18231266;32;20055;-55
2023/08/23 09:24:52;;;;;;;8.38;4.43;;;;;;;26.13;100.00;98085.12;18216859;32;20442;-54
2023/08/23 09:34:57;;;;;;;7.15;4.87;;;;;;;26.34;100.00;98082.81;18230100;32;20054;-55
2023/08/23 09:45:02;;;;;;;5.03;4.47;;;;;;;26.57;100.00;98073.75;18229607;32;20099;-55
2023/08/23 09:55:13;;;;;;;8.65;5.07;;;;;;;26.84;100.00;98065.56;18229323;32;20463;-55
2023/08/23 10:05:18;;;;;;;6.87;4.73;;;;;;;27.12;100.00;98064.44;18236503;32;20088;-54
2023/08/23 10:15:30;;;;;;;6.80;4.68;;;;;;;27.41;100.00;98070.50;18238865;32;20487;-54
2023/08/23 10:25:34;;;;;;;7.68;4.97;;;;;;;27.85;100.00;98075.53;18239020;32;20095;-55
2023/08/23 10:35:39;;;;;;;6.87;4.93;;;;;;;28.21;97.86;98053.78;18224798;32;20062;-55
2023/08/23 10:46:03;;;;;;;6.18;4.87;;;;;;;28.60;100.00;98059.00;18237620;32;20362;-55
2023/08/23 10:56:07;;;;;;;8.68;5.35;;;;;;;28.93;90.23;98051.81;18223798;32;20080;-55
2023/08/23 11:06:10;;;;;;;7.62;5.25;;;;;;;29.19;93.67;98048.03;18236779;32;20118;-55
2023/08/23 11:16:14;;;;;;;6.75;5.43;;;;;;;29.49;87.43;98044.31;18222143;32;20077;-55
2023/08/23 11:26:17;;;;;;;6.47;5.25;;;;;;;29.68;83.75;98050.78;18222465;32;20151;-55
2023/08/23 11:36:21;;;;;;;7.65;5.45;;;;;;;30.00;82.96;98048.22;18235335;32;20105;-55
2023/08/23 11:46:27;;;;;;;6.22;5.35;;;;;;;30.30;78.39;98046.34;18234798;32;20042;-56
2023/08/23 11:56:33;;;;;;;7.32;5.90;;;;;;;30.55;75.16;98024.91;18234522;32;20454;-55
2023/08/23 12:06:38;;;;;;;6.85;5.30;;;;;;;31.09;80.82;98024.19;18220308;32;20069;-55
2023/08/23 12:16:44;;;;;;;7.12;4.62;;;;;;;31.64;74.85;98025.75;18233928;32;20096;-56
2023/08/23 12:26:47;;;;;;;6.90;5.28;;;;;;;31.84;67.26;98042.09;18232151;32;20479;-56
2023/08/23 12:36:50;;;;;;;7.32;5.18;;;;;;;31.87;67.88;98032.91;18232916;32;20055;-56
2023/08/23 12:46:53;;;;;;;6.05;4.82;;;;;;;32.35;65.09;98023.12;18232262;32;20058;-55
2023/08/23 12:57:01;;;;;;;7.55;4.93;;;;;;;32.48;59.81;98015.88;18231932;32;20098;-56
2023/08/23 13:07:04;;;;;;;7.57;5.60;;;;;;;32.88;59.13;98022.03;18231485;32;20050;-55
2023/08/23 13:29:28;;;;;;;6.43;5.10;;;;;;;33.82;55.83;98017.59;18229407;32;20067;-56
2023/08/23 13:39:33;;;;;;;7.72;5.00;;;;;;;34.18;51.97;98011.53;18237570;32;20051;-56
2023/08/23 13:49:36;;;;;;;5.07;4.18;;;;;;;34.59;53.46;98013.41;18299185;32;20376;-56
2023/08/23 13:59:40;;;;;;;5.07;4.45;;;;;;;34.70;51.73;98011.25;18302964;32;20184;-56
2023/08/23 14:09:43;;;;;;;9.02;4.20;;;;;;;35.00;46.77;98020.03;18302518;32;20076;-56
2023/08/23 14:19:49;;;;;;;4.55;3.62;;;;;;;34.87;45.87;98015.00;18288002;32;20047;-56
2023/08/23 14:29:53;;;;;;;6.68;4.70;;;;;;;35.07;45.39;98003.03;18301353;32;20065;-56
2023/08/23 14:39:57;;;;;;;4.57;3.75;;;;;;;35.09;44.96;97987.34;18300941;32;20105;-56
2023/08/23 14:50:01;;;;;;;5.07;4.57;;;;;;;35.10;45.08;97986.13;18299989;32;20100;-55
2023/08/23 15:00:05;;;;;;;5.62;4.22;;;;;;;34.68;46.47;97982.78;18286648;32;20062;-55
2023/08/23 15:10:08;;;;;;;4.85;4.37;;;;;;;33.77;45.40;97988.78;18286034;32;20066;-55
2023/08/23 15:20:12;;;;;;;5.70;3.97;;;;;;;33.31;50.00;97981.66;18298870;32;20078;-55
2023/08/23 15:30:19;;;;;;;4.20;3.90;;;;;;;32.80;51.04;97986.09;18298092;32;20616;-55
2023/08/23 15:40:22;;;;;;;4.30;3.85;;;;;;;32.48;52.19;97989.87;18297897;32;20106;-55
2023/08/23 15:50:26;;;;;;;6.75;4.32;;;;;;;32.22;50.92;97980.81;18297806;32;20062;-55
2023/08/23 16:00:30;;;;;;;5.35;4.78;;;;;;;31.99;53.41;97967.34;18296327;32;20128;-55
2023/08/23 16:10:34;;;;;;;6.07;4.40;;;;;;;31.94;57.17;97960.16;18283149;32;20054;-54
2023/08/23 16:20:38;;;;;;;5.35;4.47;;;;;;;31.63;57.73;97956.28;18295900;32;20466;-55
2023/08/23 16:30:48;;;;;;;5.32;4.82;;;;;;;31.24;65.74;97935.59;18295284;32;20066;-55
2023/08/23 16:40:57;;;;;;;4.77;4.30;;;;;;;30.91;69.41;97924.44;18295547;32;20057;-54
2023/08/23 16:51:01;;;;;;;4.57;4.18;;;;;;;30.68;75.48;97924.84;18281988;32;20084;-53
2023/08/23 17:01:04;;;;;;;5.05;4.53;;;;;;;30.72;76.68;97922.84;18294665;32;20336;-55
2023/08/23 17:11:08;;;;;;;4.78;4.35;;;;;;;30.37;78.43;97913.25;18298310;32;20072;-53
2023/08/23 17:21:12;;;;;;;7.20;4.30;;;;;;;29.93;80.45;97900.44;18291717;32;20058;-53
2023/08/23 17:31:15;;;;;;;7.20;4.68;;;;;;;29.62;85.01;97908.25;18304485;32;20066;-55
2023/08/23 17:41:18;;;;;;;5.57;4.22;;;;;;;29.24;85.96;97914.06;18303893;32;20087;-54
2023/08/23 17:51:21;;;;;;;6.18;4.62;;;;;;;29.00;88.35;97925.78;18303559;32;20053;-54
2023/08/23 18:01:24;;;;;;;4.55;4.15;;;;;;;28.57;98.81;97929.00;18288726;32;20124;-51
2023/08/23 18:11:27;;;;;;;7.03;4.32;;;;;;;28.15;100.00;97919.87;18302350;32;20101;-54
2023/08/23 18:21:31;;;;;;;8.95;4.80;;;;;;;27.70;100.00;97935.63;18301134;32;20370;-54
2023/08/23 18:31:35;;;;;;;6.35;4.60;;;;;;;27.22;100.00;97930.59;18301708;32;20054;-53
2023/08/23 18:41:38;;;;;;;7.22;4.20;;;;;;;26.78;100.00;97929.13;18300884;32;20050;-52
2023/08/23 18:51:41;;;;;;;7.65;4.15;;;;;;;26.48;100.00;97942.87;18300616;32;20404;-54
2023/08/23 19:01:45;;;;;;;4.87;4.35;;;;;;;26.18;100.00;97941.53;18300109;32;20147;-54
2023/08/23 19:11:49;;;;;;;6.03;4.60;;;;;;;25.87;100.00;97948.84;18299558;32;20080;-54
2023/08/23 19:21:56;;;;;;;9.35;5.30;;;;;;;25.52;100.00;97949.69;18285698;32;20042;-55
2023/08/23 19:32:04;;;;;;;4.80;4.30;;;;;;;25.22;100.00;97963.25;18298227;32;20438;-52
2023/08/23 19:42:06;;;;;;;5.45;4.78;;;;;;;24.96;100.00;97972.13;18284451;32;20050;-54
2023/08/23 19:52:09;;;;;;;5.12;4.45;;;;;;;24.65;100.00;97963.47;18297192;32;20066;-54
2023/08/23 20:02:13;;;;;;;9.35;4.50;;;;;;;24.43;100.00;97973.13;18297340;32;20502;-53
2023/08/23 20:12:16;;;;;;;5.05;4.53;;;;;;;24.17;100.00;97981.91;18283148;32;20059;-52
2023/08/23 20:22:20;;;;;;;5.72;4.40;;;;;;;23.90;100.00;97978.81;18296258;32;20378;-53
2023/08/23 20:32:23;;;;;;;5.25;4.65;;;;;;;23.64;100.00;97980.00;18281900;32;20053;-53
2023/08/23 20:42:25;;;;;;;;;;;;;;;23.43;100.00;97993.16;18281151;32;20050;-53
2023/08/23 20:52:28;;;;;;;5.97;4.20;;;;;;;23.19;100.00;97983.78;18295146;32;20235;-51
2023/08/23 21:02:33;;;;;;;;;;;;;;;23.03;100.00;97975.34;18294658;32;20473;-53
2023/08/23 21:12:36;;;;;;;7.12;5.05;;;;;;;22.83;100.00;97979.81;18280708;32;19985;-52
2023/08/23 21:22:39;;;;;;;;;;;;;;;22.67;100.00;97974.97;18294019;32;20082;-52
2023/08/23 21:32:42;;;;;;;4.37;3.95;;;;;;;22.52;100.00;97966.59;18293727;32;19953;-52
2023/08/23 21:42:45;;;;;;;;;;;;;;;22.37;100.00;97977.12;18279086;32;20054;-51
2023/08/23 21:52:47;;;;;;;5.72;4.18;;;;;;;22.18;100.00;97963.81;18292901;32;19981;-53
2023/08/23 22:02:50;;;;;;;4.78;4.30;;;;;;;22.04;100.00;97955.88;18302613;32;20144;-53
2023/08/23 22:12:52;;;;;;;5.12;4.00;;;;;;;21.92;100.00;97940.09;18288733;32;20090;-54
2023/08/23 22:22:55;;;;;;;;;;;;;;;21.77;100.00;97932.47;18302470;32;20093;-53
2023/08/23 22:32:57;;;;;;;6.72;4.80;;;;;;;21.64;100.00;97923.38;18301743;32;20001;-54
2023/08/23 22:43:00;;;;;;;6.37;4.28;;;;;;;21.50;100.00;97907.91;18300958;32;20145;-54
2023/08/23 22:53:03;;;;;;;4.63;4.23;;;;;;;21.37;100.00;97919.19;18300524;32;20058;-53
2023/08/23 23:03:06;;;;;;;6.85;4.37;;;;;;;21.23;100.00;97906.50;18300137;32;20080;-54
2023/08/23 23:13:08;;;;;;;6.20;4.53;;;;;;;21.14;100.00;97903.00;18299143;32;20062;-49
2023/08/23 23:23:12;;;;;;;5.20;4.33;;;;;;;21.04;100.00;97909.72;18285848;32;20050;-53
2023/08/23 23:33:15;;;;;;;4.68;4.12;;;;;;;20.91;100.00;97892.34;18298093;32;20050;-52
2023/08/23 23:43:17;;;;;;;5.80;4.67;;;;;;;20.81;100.00;97881.72;18259307;32;20080;-53
2023/08/23 23:53:20;;;;;;;6.03;4.43;;;;;;;20.68;100.00;97872.59;18297512;32;20113;-52
